createdAt,value
2019-05-22T00:00:01.218Z,25.45
2019-05-22T00:04:21.590Z,27.98
2019-05-22T00:08:41.990Z,32.60
2019-05-22T00:13:02.673Z,26.23
2019-05-22T00:17:28.527Z,28.05
2019-05-22T00:21:49.155Z,33.00
2019-05-22T00:26:10.171Z,28.05
2019-05-22T00:30:30.468Z,24.50
2019-05-22T00:34:50.977Z,27.75
2019-05-22T00:39:11.673Z,25.15
2019-05-22T00:43:32.864Z,28.83
2019-05-22T00:47:52.980Z,23.12
2019-05-22T00:52:17.621Z,26.82
2019-05-22T00:56:37.880Z,21.35
2019-05-22T01:00:58.871Z,21.70
2019-05-22T01:05:20.794Z,22.62
2019-05-22T01:09:42.263Z,25.00
2019-05-22T01:14:02.350Z,23.22
2019-05-22T01:18:24.902Z,24.65
2019-05-22T01:22:47.479Z,36.42
2019-05-22T01:27:08.406Z,30.35
2019-05-22T01:31:28.703Z,29.10
2019-05-22T01:35:52.022Z,33.08
2019-05-22T01:40:20.915Z,27.00
2019-05-22T01:44:41.091Z,27.40
2019-05-22T01:49:01.977Z,28.15
2019-05-22T01:53:22.965Z,24.35
2019-05-22T01:57:43.254Z,19.80
2019-05-22T02:02:03.652Z,24.70
2019-05-22T02:06:24.985Z,25.08
2019-05-22T02:10:46.095Z,28.87
2019-05-22T02:15:06.633Z,19.98
2019-05-22T02:19:27.555Z,20.10
2019-05-22T02:23:47.660Z,17.35
2019-05-22T02:28:08.126Z,16.70
2019-05-22T02:32:28.805Z,17.02
2019-05-22T02:36:48.998Z,17.70
2019-05-22T02:41:14.017Z,22.85
2019-05-22T02:45:32.121Z,19.50
2019-05-22T02:49:54.563Z,28.38
2019-05-22T02:54:15.163Z,25.65
2019-05-22T02:58:36.889Z,27.40
2019-05-22T03:02:58.100Z,28.52
2019-05-22T03:07:18.501Z,22.58
2019-05-22T03:11:41.537Z,23.40
2019-05-22T03:16:01.817Z,25.37
2019-05-22T03:20:22.856Z,21.77
2019-05-22T03:24:43.633Z,19.20
2019-05-22T03:29:04.650Z,20.85
2019-05-22T03:33:24.948Z,18.12
2019-05-22T03:37:45.115Z,21.02
2019-05-22T03:42:07.275Z,17.82
2019-05-22T03:46:39.279Z,18.85
2019-05-22T03:51:09.252Z,20.17
2019-05-22T03:55:29.309Z,21.30
2019-05-22T03:59:49.363Z,24.02
2019-05-22T04:04:10.938Z,21.97
2019-05-22T04:08:31.818Z,19.40
2019-05-22T04:12:51.912Z,18.80
2019-05-22T04:17:12.451Z,18.02
2019-05-22T04:21:32.601Z,18.92
2019-05-22T04:25:53.572Z,18.90
2019-05-22T04:30:14.200Z,18.87
2019-05-22T04:34:34.809Z,16.65
2019-05-22T04:38:56.198Z,16.30
2019-05-22T04:43:20.418Z,15.45
2019-05-22T04:47:42.576Z,13.78
2019-05-22T04:52:03.272Z,13.98
2019-05-22T04:56:26.054Z,15.30
2019-05-22T05:00:46.520Z,18.90
2019-05-22T05:05:09.133Z,19.20
2019-05-22T05:09:29.984Z,18.23
2019-05-22T05:13:50.439Z,18.37
2019-05-22T05:18:10.843Z,19.60
2019-05-22T05:22:40.497Z,17.20
2019-05-22T05:27:00.905Z,18.48
2019-05-22T05:31:21.909Z,17.02
2019-05-22T05:35:42.977Z,16.95
2019-05-22T05:40:28.135Z,16.15
2019-05-22T05:44:49.275Z,16.32
2019-05-22T05:49:10.573Z,15.95
2019-05-22T05:53:33.054Z,16.45
2019-05-22T05:58:22.827Z,16.27
2019-05-22T06:02:56.069Z,14.23
2019-05-22T06:10:34.021Z,15.65
2019-05-22T06:14:54.842Z,16.12
2019-05-22T06:19:15.961Z,18.00
2019-05-22T06:24:14.295Z,16.20
2019-05-22T06:28:37.361Z,16.27
2019-05-22T06:33:38.025Z,15.93
2019-05-22T06:38:17.251Z,15.10
2019-05-22T06:42:42.098Z,15.55
2019-05-22T06:47:03.706Z,15.85
2019-05-22T06:51:36.810Z,15.30
2019-05-22T06:55:58.509Z,15.23
2019-05-22T07:00:19.928Z,15.50
2019-05-22T07:04:40.839Z,14.28
2019-05-22T07:09:01.302Z,14.25
2019-05-22T07:13:23.350Z,13.85
2019-05-22T07:17:44.812Z,13.98
2019-05-22T07:22:05.967Z,13.83
2019-05-22T07:26:27.490Z,13.78
2019-05-22T07:30:48.808Z,12.33
2019-05-22T07:35:10.357Z,12.73
2019-05-22T07:39:31.620Z,12.23
2019-05-22T07:43:53.587Z,13.68
2019-05-22T07:48:15.533Z,12.40
2019-05-22T07:52:36.424Z,11.88
2019-05-22T07:56:58.334Z,13.70
2019-05-22T08:01:29.377Z,11.93
2019-05-22T08:05:55.171Z,11.90
2019-05-22T08:10:17.798Z,12.18
2019-05-22T08:14:38.809Z,13.10
2019-05-22T08:19:00.095Z,11.93
2019-05-22T08:23:21.189Z,11.70
2019-05-22T08:27:42.247Z,14.15
2019-05-22T08:32:03.659Z,13.75
2019-05-22T08:36:24.785Z,14.30
2019-05-22T08:40:45.659Z,13.10
2019-05-22T08:45:06.726Z,12.10
2019-05-22T08:49:27.412Z,12.98
2019-05-22T08:53:48.757Z,11.78
2019-05-22T08:58:20.945Z,12.10
2019-05-22T09:02:41.992Z,12.03
2019-05-22T09:07:02.933Z,11.85
2019-05-22T09:11:24.387Z,10.70
2019-05-22T09:15:45.709Z,11.15
2019-05-22T09:20:12.146Z,12.58
2019-05-22T09:24:34.974Z,11.55
2019-05-22T09:28:55.848Z,12.88
2019-05-22T09:33:16.421Z,19.07
2019-05-22T09:37:37.555Z,16.07
2019-05-22T09:41:58.070Z,14.20
2019-05-22T09:46:19.068Z,16.75
2019-05-22T09:50:39.899Z,14.47
2019-05-22T09:55:00.506Z,18.25
2019-05-22T09:59:21.115Z,17.73
2019-05-22T10:03:41.704Z,14.80
2019-05-22T10:08:02.162Z,14.20
2019-05-22T10:12:23.000Z,13.62
2019-05-22T10:16:43.578Z,14.73
2019-05-22T10:21:04.090Z,14.45
2019-05-22T10:25:24.691Z,14.65
2019-05-22T10:29:45.228Z,16.42
2019-05-22T10:34:06.088Z,14.05
2019-05-22T10:38:27.004Z,15.75
2019-05-22T10:42:52.645Z,14.78
2019-05-22T10:47:13.120Z,14.65
2019-05-22T10:51:33.841Z,15.30
2019-05-22T10:55:54.634Z,15.10
2019-05-22T11:00:16.725Z,16.87
2019-05-22T11:04:37.347Z,15.95
2019-05-22T11:08:58.050Z,15.63
2019-05-22T11:13:18.549Z,15.63
2019-05-22T11:17:39.944Z,13.55
2019-05-22T11:22:00.961Z,14.38
2019-05-22T11:26:22.007Z,14.80
2019-05-22T11:30:42.696Z,13.65
2019-05-22T11:35:06.757Z,13.98
2019-05-22T11:39:38.522Z,13.00
2019-05-22T11:43:49.023Z,13.53
2019-05-22T11:48:09.656Z,15.10
2019-05-22T11:52:30.623Z,14.38
2019-05-22T11:56:51.247Z,16.12
2019-05-22T12:01:11.678Z,14.93
2019-05-22T12:05:32.992Z,14.87
2019-05-22T12:09:53.535Z,12.93
2019-05-22T12:14:15.013Z,12.37
2019-05-22T12:18:35.254Z,11.83
2019-05-22T12:22:55.972Z,11.65
2019-05-22T12:27:16.426Z,11.45
2019-05-22T12:31:37.185Z,12.13
2019-05-22T12:35:57.606Z,11.18
2019-05-22T12:40:18.500Z,11.65
2019-05-22T12:44:40.058Z,10.70
2019-05-22T12:49:01.510Z,10.88
2019-05-22T12:53:22.107Z,10.23
2019-05-22T12:57:42.783Z,12.30
2019-05-22T13:02:04.373Z,11.00
2019-05-22T13:06:25.647Z,11.45
2019-05-22T13:10:47.417Z,11.80
2019-05-22T13:15:10.402Z,10.10
2019-05-22T13:19:31.536Z,11.75
2019-05-22T13:23:52.535Z,11.45
2019-05-22T13:28:16.960Z,12.47
2019-05-22T13:32:56.935Z,12.75
2019-05-22T13:37:17.964Z,11.73
2019-05-22T13:41:42.809Z,13.62
2019-05-22T13:46:03.409Z,11.97
2019-05-22T13:50:28.692Z,12.43
2019-05-22T13:54:55.897Z,12.18
2019-05-22T13:59:16.702Z,11.12
2019-05-22T14:03:38.271Z,12.33
2019-05-22T14:08:00.306Z,11.18
2019-05-22T14:12:21.772Z,11.53
2019-05-22T14:16:48.658Z,10.60
2019-05-22T14:21:04.698Z,12.65
2019-05-22T14:25:25.733Z,10.70
2019-05-22T14:29:46.320Z,11.38
2019-05-22T14:34:09.233Z,11.45
2019-05-22T14:38:30.701Z,11.97
2019-05-22T14:42:52.261Z,11.83
2019-05-22T14:47:16.279Z,11.85
2019-05-22T14:51:35.787Z,11.73
2019-05-22T14:55:57.172Z,11.30
2019-05-22T15:00:18.892Z,10.70
2019-05-22T15:04:40.313Z,12.23
2019-05-22T15:09:01.365Z,10.40
2019-05-22T15:13:22.088Z,11.53
2019-05-22T15:17:42.856Z,10.63
2019-05-22T15:22:04.842Z,11.28
2019-05-22T15:26:25.792Z,14.83
2019-05-22T15:30:46.525Z,11.83
2019-05-22T15:35:10.951Z,11.25
2019-05-22T15:39:32.491Z,11.38
2019-05-22T15:43:54.433Z,11.78
2019-05-22T15:48:17.138Z,10.85
2019-05-22T15:52:39.119Z,12.45
2019-05-22T15:57:00.801Z,10.80
2019-05-22T16:01:31.228Z,10.40
2019-05-22T16:05:53.283Z,10.82
2019-05-22T16:10:13.881Z,10.20
2019-05-22T16:14:34.867Z,9.88
2019-05-22T16:18:59.951Z,9.28
2019-05-22T16:23:22.093Z,9.40
2019-05-22T16:27:44.666Z,10.53
2019-05-22T16:32:07.569Z,10.05
2019-05-22T16:36:29.048Z,9.65
2019-05-22T16:41:27.307Z,9.03
2019-05-22T16:45:48.587Z,8.05
2019-05-22T16:50:11.445Z,7.22
2019-05-22T16:54:32.764Z,6.15
2019-05-22T16:58:53.717Z,7.33
2019-05-22T17:03:14.609Z,6.70
2019-05-22T17:07:35.932Z,7.20
2019-05-22T17:11:57.317Z,6.87
2019-05-22T17:16:17.847Z,8.08
2019-05-22T17:20:43.382Z,5.97
2019-05-22T17:25:04.348Z,6.25
2019-05-22T17:29:24.867Z,6.35
2019-05-22T17:33:46.034Z,6.72
2019-05-22T17:38:06.992Z,6.10
2019-05-22T17:42:28.743Z,6.45
2019-05-22T17:46:49.866Z,7.60
2019-05-22T17:51:10.989Z,7.40
2019-05-22T17:55:36.841Z,6.40
2019-05-22T17:59:59.131Z,6.80
2019-05-22T18:04:19.483Z,6.90
2019-05-22T18:08:41.498Z,6.47
2019-05-22T18:13:03.292Z,5.87
2019-05-22T18:17:24.447Z,6.03
2019-05-22T18:21:45.154Z,5.83
2019-05-22T18:26:05.755Z,6.83
2019-05-22T18:30:26.972Z,5.85
2019-05-22T18:34:54.481Z,5.53
2019-05-22T18:39:15.422Z,6.42
2019-05-22T18:43:36.019Z,6.35
2019-05-22T18:47:58.352Z,6.15
2019-05-22T18:52:19.260Z,6.53
2019-05-22T18:56:40.807Z,6.17
2019-05-22T19:01:01.700Z,7.03
2019-05-22T19:05:25.852Z,6.75
2019-05-22T19:09:46.724Z,7.10
2019-05-22T19:14:08.113Z,7.50
2019-05-22T19:18:28.941Z,8.20
2019-05-22T19:22:59.931Z,7.72
2019-05-22T19:27:13.711Z,7.75
2019-05-22T19:31:35.258Z,7.78
2019-05-22T19:35:56.340Z,8.75
2019-05-22T19:40:18.133Z,8.75
2019-05-22T19:44:39.787Z,7.90
2019-05-22T19:49:01.793Z,8.38
2019-05-22T19:53:22.266Z,8.48
2019-05-22T19:57:44.283Z,8.50
2019-05-22T20:02:04.979Z,8.18
2019-05-22T20:06:25.771Z,8.63
2019-05-22T20:10:47.281Z,6.75
2019-05-22T20:15:08.271Z,6.60
2019-05-22T20:19:29.871Z,6.45
2019-05-22T20:23:51.851Z,5.62
2019-05-22T20:28:13.584Z,5.80
2019-05-22T20:32:45.772Z,5.45
2019-05-22T20:37:16.880Z,4.92
2019-05-22T20:41:46.774Z,5.70
2019-05-22T20:46:10.324Z,5.28
2019-05-22T20:50:40.275Z,5.25
2019-05-22T20:55:03.916Z,4.65
2019-05-22T20:59:25.124Z,5.85
2019-05-22T21:03:45.800Z,4.90
2019-05-22T21:08:10.362Z,5.25
2019-05-22T21:12:35.477Z,5.40
2019-05-22T21:16:54.719Z,6.30
2019-05-22T21:21:15.892Z,5.67
2019-05-22T21:25:36.737Z,6.83
2019-05-22T21:29:57.249Z,6.80
2019-05-22T21:34:18.056Z,5.85
2019-05-22T21:38:39.199Z,6.95
2019-05-22T21:43:00.591Z,6.45
2019-05-22T21:47:21.913Z,7.37
2019-05-22T21:51:43.222Z,6.20
2019-05-22T21:56:07.521Z,6.42
2019-05-22T22:00:32.729Z,7.08
2019-05-22T22:04:54.311Z,6.05
2019-05-22T22:09:15.054Z,5.78
2019-05-22T22:13:36.973Z,5.78
2019-05-22T22:17:57.310Z,7.70
2019-05-22T22:26:37.973Z,6.28
2019-05-22T22:31:00.375Z,6.65
2019-05-22T22:35:21.557Z,7.33
2019-05-22T22:39:43.911Z,6.80
2019-05-22T22:44:05.021Z,6.42
2019-05-22T22:48:25.295Z,6.60
2019-05-22T22:52:46.421Z,7.42
2019-05-22T22:57:07.329Z,7.83
2019-05-22T23:01:29.768Z,7.50
2019-05-22T23:05:50.762Z,8.25
2019-05-22T23:10:12.120Z,8.05
2019-05-22T23:14:33.336Z,8.80
2019-05-22T23:19:15.576Z,8.30
2019-05-22T23:23:34.817Z,8.73
2019-05-22T23:27:55.997Z,8.80
2019-05-22T23:32:16.378Z,8.18
2019-05-22T23:36:36.660Z,8.63
2019-05-22T23:40:57.147Z,8.00
2019-05-22T23:45:19.195Z,8.15
2019-05-22T23:49:40.205Z,8.85
2019-05-22T23:54:00.857Z,9.25
2019-05-22T23:58:22.043Z,8.85
